Аэропорт: Кокшетау. Кокшетау

ICAO: UACK

METAR:
Информация по данной станции не доступна
TAF:
2024-04-22 14:01:00
TAF UACK 221401Z 2215/2224 04003MPS CAVOK 
  TEMPO 2215/2221 VRB01MPS